Time;durP1;ratioP1;P1;durP2;ratioP2;P2;SDS_P1;SDS_P2;PMS_P1;PMS_P2;Temp;Humidity;BMP_temperature;BMP_pressure;BME280_temperature;BME280_humidity;BME280_pressure;Samples;Min_cycle;Max_cycle;Signal;HPM_P1;HPM_P2
2023/09/07 00:00:58;;;;;;;;;;;;;;;22.92;63.13;99993.34;5073401;28;19912;-76
2023/09/07 00:03:23;;;;;;;;;;;;;;;22.90;63.62;99984.69;5091993;28;20372;-78
2023/09/07 00:05:48;;;;;;;;;;;;;;;22.91;63.47;99992.53;5092054;28;19963;-77
2023/09/07 00:08:13;;;;;;;;;;;;;;;22.93;62.71;99995.78;5092158;28;19981;-77
2023/09/07 00:10:39;;;;;;;;;;;;;;;22.93;62.21;99998.47;5091902;28;19916;-78
2023/09/07 00:13:04;;;;;;;;;;;;;;;22.84;63.32;99991.88;5091913;28;20377;-77
2023/09/07 00:15:30;;;;;;;;;;;;;;;22.82;62.79;99991.31;5092108;28;19919;-76
2023/09/07 00:17:55;;;;;;;;;;;;;;;22.78;63.56;99988.28;5091954;28;19934;-77
2023/09/07 00:20:21;;;;;;;;;;;;;;;22.77;63.03;99981.25;5091965;28;20083;-77
2023/09/07 00:22:46;;;;;;;;;;;;;;;22.74;63.13;99981.75;5091996;28;19912;-77
2023/09/07 00:25:12;;;;;;;;;;;;;;;22.72;63.55;99989.25;5092059;28;20407;-77
2023/09/07 00:27:37;;;;;;;;;;;;;;;22.67;62.58;99991.88;5091960;28;20391;-77
2023/09/07 00:30:04;;;;;;;;;;;;;;;22.65;63.64;99994.00;5092248;28;19976;-77
2023/09/07 00:32:29;;;;;;;;;;;;;;;22.67;64.06;99988.38;5091849;28;20370;-77
2023/09/07 00:34:55;;;;;;;;;;;;;;;22.67;63.49;99989.19;5091936;28;20064;-77
2023/09/07 00:37:20;;;;;;;;;;;;;;;22.67;63.87;99991.88;5091908;28;20004;-75
2023/09/07 00:39:45;;;;;;;;;;;;;;;22.62;64.12;99991.81;5073766;28;20355;-77
2023/09/07 00:42:10;;;;;;;;;;;;;;;22.62;63.59;99991.81;5091770;28;19926;-77
2023/09/07 00:44:36;;;;;;;;;;;;;;;22.59;63.52;99989.59;5091924;28;20381;-77
2023/09/07 00:47:01;;;;;;;;;;;;;;;22.61;62.98;99987.47;5092024;28;20022;-77
2023/09/07 00:49:27;;;;;;;;;;;;;;;22.63;63.24;99985.38;5091791;28;19912;-77
2023/09/07 00:51:52;;;;;;;;;;;;;;;22.62;63.42;99975.66;5092270;28;19916;-77
2023/09/07 00:54:19;;;;;;;;;;;;;;;22.59;64.00;99978.03;5095684;28;19946;-77
2023/09/07 00:56:44;;;;;;;;;;;;;;;22.60;63.45;99985.03;5095729;28;20382;-77
2023/09/07 00:59:11;;;;;;;;;;;;;;;22.58;62.80;99987.97;5095661;28;19937;-77
2023/09/07 01:01:36;;;;;;;;;;;;;;;22.59;63.45;99978.03;5077122;28;19927;-77
2023/09/07 01:04:03;;;;;;;;;;;;;;;22.56;62.74;99979.34;5077201;28;19916;-77
2023/09/07 01:06:43;;;;;;;;;;;;;;;22.55;63.12;99976.88;5095387;28;19912;-78
2023/09/07 01:09:15;;;;;;;;;;;;;;;22.49;63.53;99973.31;5077163;28;20006;-76
2023/09/07 01:11:40;;;;;;;;;;;;;;;22.47;63.50;99970.84;5095883;28;19908;-77
2023/09/07 01:14:05;;;;;;;;;;;;;;;22.45;63.59;99966.78;5096191;28;19918;-77
2023/09/07 01:16:33;;;;;;;;;;;;;;;22.43;62.92;99968.91;5115558;28;19912;-76
2023/09/07 01:18:59;;;;;;;;;;;;;;;22.41;62.99;99971.84;5090634;28;19913;-77
2023/09/07 01:21:25;;;;;;;;;;;;;;;22.39;63.01;99976.66;5095232;28;19991;-77
2023/09/07 01:23:52;;;;;;;;;;;;;;;22.36;63.60;99985.22;5095795;28;20000;-77
2023/09/07 01:26:17;;;;;;;;;;;;;;;22.38;63.01;99979.59;5095281;28;19918;-75
2023/09/07 01:28:42;;;;;;;;;;;;;;;22.39;62.99;99979.34;5094843;28;19998;-77
2023/09/07 01:31:07;;;;;;;;;;;;;;;22.42;63.59;99986.09;5076867;28;20392;-77
2023/09/07 01:33:33;;;;;;;;;;;;;;;22.42;63.43;99986.09;5095078;28;19972;-76
2023/09/07 01:35:58;;;;;;;;;;;;;;;22.41;63.48;99981.78;5076807;28;19998;-76
2023/09/07 01:38:23;;;;;;;;;;;;;;;22.43;63.37;99985.06;5107497;28;19916;-78
2023/09/07 01:40:49;;;;;;;;;;;;;;;22.44;63.30;99990.19;5111448;28;19912;-76
2023/09/07 01:43:14;;;;;;;;;;;;;;;22.46;62.76;99984.56;5094917;28;19919;-77
2023/09/07 01:45:39;;;;;;;;;;;;;;;22.43;62.62;99988.56;5095142;28;19919;-76
2023/09/07 01:48:11;;;;;;;;;;;;;;;22.38;62.77;99971.50;5094902;28;19912;-76
2023/09/07 01:50:37;;;;;;;;;;;;;;;22.33;63.01;99980.31;5076431;28;19912;-77
2023/09/07 01:53:04;;;;;;;;;;;;;;;22.30;63.23;99980.00;5094562;28;19912;-78
2023/09/07 01:55:29;;;;;;;;;;;;;;;22.22;63.80;99974.97;5094495;28;20357;-77
2023/09/07 01:57:55;;;;;;;;;;;;;;;22.18;64.48;99978.16;5076333;28;20113;-77
2023/09/07 02:00:20;;;;;;;;;;;;;;;22.20;64.09;99980.59;5076360;28;19912;-77
2023/09/07 02:02:46;;;;;;;;;;;;;;;22.20;64.47;99980.59;5094220;28;20312;-77
2023/09/07 02:05:12;;;;;;;;;;;;;;;22.16;63.96;99974.91;5093482;28;20054;-78
2023/09/07 02:07:37;;;;;;;;;;;;;;;22.13;63.88;99978.06;5094488;28;19970;-77
2023/09/07 02:10:05;;;;;;;;;;;;;;;22.15;63.61;99981.34;5076133;28;19937;-77
2023/09/07 02:12:31;;;;;;;;;;;;;;;22.17;63.49;99981.91;5075991;28;20309;-77
2023/09/07 02:14:56;;;;;;;;;;;;;;;22.13;63.83;99980.75;5093977;28;19912;-77
2023/09/07 02:17:21;;;;;;;;;;;;;;;22.14;63.80;99978.88;5075829;28;19918;-78
2023/09/07 02:19:47;;;;;;;;;;;;;;;22.15;63.35;99972.47;5094022;28;20316;-77
2023/09/07 02:22:12;;;;;;;;;;;;;;;22.16;63.53;99976.78;5094230;28;20347;-77
2023/09/07 02:24:37;;;;;;;;;;;;;;;22.14;63.06;99968.94;5094035;28;19916;-77
2023/09/07 02:27:02;;;;;;;;;;;;;;;22.12;63.12;99968.38;5094136;28;19919;-77
2023/09/07 02:29:28;;;;;;;;;;;;;;;22.08;63.53;99969.91;5093851;28;19954;-76
2023/09/07 02:31:53;;;;;;;;;;;;;;;22.05;63.51;99970.41;5094186;28;19916;-78
2023/09/07 02:34:18;;;;;;;;;;;;;;;22.02;63.68;99975.41;5093789;28;19966;-77
2023/09/07 02:36:44;;;;;;;;;;;;;;;22.00;63.82;99970.28;5075682;28;19912;-77
2023/09/07 02:39:11;;;;;;;;;;;;;;;22.00;63.20;99974.84;5093763;28;19912;-76
2023/09/07 02:41:36;;;;;;;;;;;;;;;22.02;63.44;99978.94;5093787;28;20385;-77
2023/09/07 02:44:02;;;;;;;;;;;;;;;22.04;63.28;99967.97;5075396;28;19924;-77
2023/09/07 02:46:28;;;;;;;;;;;;;;;22.03;63.73;99969.84;5075287;28;20403;-77
2023/09/07 02:48:56;;;;;;;;;;;;;;;22.01;63.56;99971.91;5075237;28;19931;-77
2023/09/07 02:51:22;;;;;;;;;;;;;;;22.02;63.33;99978.13;5093512;28;20005;-77
2023/09/07 02:53:47;;;;;;;;;;;;;;;21.99;62.87;99965.16;5093444;28;20393;-76
2023/09/07 02:56:13;;;;;;;;;;;;;;;21.95;62.49;99978.25;5093438;28;19912;-77
2023/09/07 02:58:38;;;;;;;;;;;;;;;21.89;63.22;99969.28;5093468;28;20007;-77
2023/09/07 03:01:08;;;;;;;;;;;;;;;21.86;63.37;99967.09;5093438;28;19916;-77
2023/09/07 03:03:33;;;;;;;;;;;;;;;21.86;63.04;99969.78;5093431;28;20002;-78
2023/09/07 03:06:08;;;;;;;;;;;;;;;21.84;63.00;99974.56;5093087;28;20368;-77
2023/09/07 03:08:33;;;;;;;;;;;;;;;21.84;63.22;99965.69;5075090;28;19904;-78
2023/09/07 03:10:58;;;;;;;;;;;;;;;21.81;63.45;99963.50;5074850;28;19916;-77
2023/09/07 03:13:23;;;;;;;;;;;;;;;21.82;63.20;99965.94;5093150;28;19935;-77
2023/09/07 03:15:52;;;;;;;;;;;;;;;21.88;62.59;99964.97;5092908;28;20331;-78
2023/09/07 03:18:18;;;;;;;;;;;;;;;21.87;62.17;99957.97;5074596;28;19965;-78
2023/09/07 03:20:43;;;;;;;;;;;;;;;21.88;62.04;99958.78;5075328;28;19912;-77
2023/09/07 03:23:08;;;;;;;;;;;;;;;21.90;61.98;99964.72;5092776;28;19912;-77
2023/09/07 03:25:34;;;;;;;;;;;;;;;21.91;61.82;99958.28;5092869;28;19919;-77
2023/09/07 03:27:59;;;;;;;;;;;;;;;21.95;61.54;99961.31;5093028;28;19912;-75
2023/09/07 03:30:24;;;;;;;;;;;;;;;21.97;61.75;99964.56;5092670;28;19912;-77
2023/09/07 03:32:50;;;;;;;;;;;;;;;21.94;61.67;99960.50;5074619;28;19990;-78
2023/09/07 03:35:15;;;;;;;;;;;;;;;21.94;61.58;99960.50;5092618;28;19919;-77
2023/09/07 03:37:42;;;;;;;;;;;;;;;21.94;61.53;99963.19;5074435;28;19912;-77
2023/09/07 03:40:08;;;;;;;;;;;;;;;21.98;61.61;99964.34;5092753;28;19991;-77
2023/09/07 03:42:34;;;;;;;;;;;;;;;22.02;61.45;99964.66;5092720;28;19912;-77
2023/09/07 03:44:59;;;;;;;;;;;;;;;22.02;61.26;99972.72;5092279;28;19916;-77
2023/09/07 03:47:28;;;;;;;;;;;;;;;22.01;61.27;99979.16;5092529;28;19919;-77
2023/09/07 03:49:54;;;;;;;;;;;;;;;21.96;61.38;99971.84;5092603;28;19916;-77
2023/09/07 03:52:21;;;;;;;;;;;;;;;21.95;61.33;99978.25;5092380;28;20376;-76
2023/09/07 03:54:46;;;;;;;;;;;;;;;21.95;61.56;99978.25;5092310;28;19912;-77
2023/09/07 03:57:11;;;;;;;;;;;;;;;21.99;61.55;99986.66;5074123;28;20396;-77
2023/09/07 03:59:37;;;;;;;;;;;;;;;21.96;61.36;99982.59;5092400;28;19916;-77
2023/09/07 04:02:03;;;;;;;;;;;;;;;21.98;61.25;99993.09;5092314;28;19920;-77
2023/09/07 04:04:28;;;;;;;;;;;;;;;21.98;61.20;99993.91;5092099;28;20086;-77
2023/09/07 04:06:53;;;;;;;;;;;;;;;21.98;61.13;99990.41;5092404;28;19916;-77
2023/09/07 04:09:18;;;;;;;;;;;;;;;21.96;60.87;99985.28;5092193;28;19963;-77
2023/09/07 04:11:44;;;;;;;;;;;;;;;21.91;61.14;99987.88;5075590;28;19912;-77
2023/09/07 04:14:09;;;;;;;;;;;;;;;21.94;60.99;99982.00;5081757;28;19912;-76
2023/09/07 04:16:34;;;;;;;;;;;;;;;21.97;60.80;99986.09;5095330;28;19912;-76
2023/09/07 04:19:00;;;;;;;;;;;;;;;21.99;60.68;99986.66;5092140;28;20404;-78
2023/09/07 04:21:44;;;;;;;;;;;;;;;22.02;60.62;99991.56;5091984;28;20456;-77
2023/09/07 04:24:09;;;;;;;;;;;;;;;22.02;60.52;99983.50;5073798;28;19916;-77
2023/09/07 04:26:34;;;;;;;;;;;;;;;22.01;60.57;99989.94;5091660;28;19919;-77
2023/09/07 04:28:59;;;;;;;;;;;;;;;22.04;60.42;99992.16;5073821;28;19916;-76
2023/09/07 04:31:27;;;;;;;;;;;;;;;22.05;60.54;99994.59;5092019;28;20015;-77
2023/09/07 04:33:52;;;;;;;;;;;;;;;22.07;60.96;99997.06;5093199;28;19912;-77
2023/09/07 04:36:18;;;;;;;;;;;;;;;22.09;61.19;99998.44;5113754;28;20289;-77
2023/09/07 04:38:43;;;;;;;;;;;;;;;22.09;61.27;99995.75;5099027;28;19912;-78
2023/09/07 04:41:09;;;;;;;;;;;;;;;22.05;61.16;100002.69;5092038;28;19912;-78
2023/09/07 04:43:34;;;;;;;;;;;;;;;22.02;61.86;99995.06;5092300;28;19916;-75
2023/09/07 04:46:00;;;;;;;;;;;;;;;22.00;62.28;99999.06;5092049;28;19912;-77
2023/09/07 04:48:25;;;;;;;;;;;;;;;22.00;61.94;99999.88;5073574;28;19912;-77
2023/09/07 04:51:04;;;;;;;;;;;;;;;22.02;61.85;100003.13;5073570;28;20365;-78
2023/09/07 04:53:30;;;;;;;;;;;;;;;22.02;62.32;100005.81;5091651;28;19955;-78
2023/09/07 04:55:56;;;;;;;;;;;;;;;22.01;62.22;100001.50;5091501;28;19973;-77
2023/09/07 04:58:21;;;;;;;;;;;;;;;21.99;62.29;100000.09;5091609;28;19912;-77
2023/09/07 05:00:46;;;;;;;;;;;;;;;21.99;61.85;100006.31;5091530;28;19908;-78
2023/09/07 05:03:12;;;;;;;;;;;;;;;22.01;62.55;100012.25;5091592;28;19955;-78
2023/09/07 05:05:38;;;;;;;;;;;;;;;22.06;61.84;100004.31;5091794;28;19916;-75
2023/09/07 05:08:04;;;;;;;;;;;;;;;22.10;61.81;100008.16;5091518;28;20441;-76
2023/09/07 05:10:32;;;;;;;;;;;;;;;22.12;62.05;100006.03;5073509;28;19919;-78
2023/09/07 05:12:57;;;;;;;;;;;;;;;22.14;62.48;100008.47;5091671;28;19955;-76
2023/09/07 05:15:23;;;;;;;;;;;;;;;22.13;62.00;100010.34;5091687;28;19912;-78
2023/09/07 05:17:48;;;;;;;;;;;;;;;22.15;62.68;100007.41;5091635;28;19918;-76
2023/09/07 05:20:13;;;;;;;;;;;;;;;22.17;62.46;100005.31;5091887;28;20296;-77
2023/09/07 05:25:22;;;;;;;;;;;;;;;22.11;62.23;100007.09;5091300;28;20328;-78
2023/09/07 05:27:48;;;;;;;;;;;;;;;22.12;61.72;100008.72;5073219;28;19912;-77
2023/09/07 05:30:14;;;;;;;;;;;;;;;22.12;63.01;100011.41;5091415;28;19920;-77
2023/09/07 05:32:41;;;;;;;;;;;;;;;22.11;63.25;100014.34;5091490;28;19911;-78
2023/09/07 05:35:06;;;;;;;;;;;;;;;22.12;63.22;100013.28;5091142;28;19916;-77
2023/09/07 05:37:32;;;;;;;;;;;;;;;22.17;62.23;100016.06;5073192;28;19916;-77
2023/09/07 05:39:57;;;;;;;;;;;;;;;22.22;62.44;100020.72;5093799;28;19965;-76
2023/09/07 05:42:22;;;;;;;;;;;;;;;22.27;63.20;100021.63;5094982;28;19918;-77
2023/09/07 05:44:47;;;;;;;;;;;;;;;22.29;62.62;100021.38;5094688;28;19916;-77
2023/09/07 05:47:12;;;;;;;;;;;;;;;22.28;62.81;100022.44;5094786;28;19919;-77
2023/09/07 05:49:38;;;;;;;;;;;;;;;22.28;63.46;100023.25;5076650;28;19912;-76
2023/09/07 05:52:03;;;;;;;;;;;;;;;22.31;63.42;100017.41;5075117;28;20404;-77
2023/09/07 05:54:28;;;;;;;;;;;;;;;22.42;63.08;100023.78;5090621;28;20362;-76
2023/09/07 05:56:54;;;;;;;;;;;;;;;22.47;63.29;100019.28;5094809;28;20301;-77
2023/09/07 05:59:19;;;;;;;;;;;;;;;22.57;62.36;100015.94;5076246;28;19912;-76
2023/09/07 06:01:44;;;;;;;;;;;;;;;22.67;62.23;100026.06;5094097;28;20316;-77
2023/09/07 06:04:10;;;;;;;;;;;;;;;22.73;62.19;100017.81;5094140;28;19916;-78
2023/09/07 06:06:35;;;;;;;;;;;;;;;22.82;61.77;100016.38;5093176;28;20320;-77
2023/09/07 06:09:00;;;;;;;;;;;;;;;22.93;62.03;100011.94;5094076;28;20008;-77
2023/09/07 06:11:26;;;;;;;;;;;;;;;23.01;60.81;100013.41;5075937;28;19923;-76
2023/09/07 06:13:51;;;;;;;;;;;;;;;23.04;60.75;100013.75;5093853;28;19916;-77
2023/09/07 06:16:17;;;;;;;;;;;;;;;23.05;59.54;100018.06;5093988;28;19915;-77
2023/09/07 06:18:42;;;;;;;;;;;;;;;23.04;60.26;100021.03;5076215;28;19923;-77
2023/09/07 06:21:07;;;;;;;;;;;;;;;23.09;59.96;100019.22;5094156;28;20002;-77
2023/09/07 06:23:32;;;;;;;;;;;;;;;23.18;59.94;100019.59;5094218;28;19920;-77
2023/09/07 06:25:58;;;;;;;;;;;;;;;23.22;59.67;100012.66;5093890;28;20004;-77
2023/09/07 06:28:23;;;;;;;;;;;;;;;23.23;59.36;100016.97;5075281;28;19919;-77
2023/09/07 06:30:48;;;;;;;;;;;;;;;23.24;59.59;100018.59;5093885;28;19971;-77
2023/09/07 06:33:13;;;;;;;;;;;;;;;23.31;58.95;100015.72;5093270;28;20011;-77
2023/09/07 06:35:39;;;;;;;;;;;;;;;23.28;58.30;100025.13;5093682;28;19916;-77
2023/09/07 06:38:04;;;;;;;;;;;;;;;23.34;58.25;100024.13;5074940;28;19916;-77
2023/09/07 06:40:29;;;;;;;;;;;;;;;23.40;58.00;100028.50;5061063;28;19970;-77
2023/09/07 06:42:56;;;;;;;;;;;;;;;23.46;57.83;100026.69;5079768;28;20116;-76
2023/09/07 06:45:23;;;;;;;;;;;;;;;23.51;57.59;100034.03;5093505;28;20396;-77
2023/09/07 06:47:49;;;;;;;;;;;;;;;23.49;57.45;100034.28;5074847;28;19916;-76
2023/09/07 06:50:14;;;;;;;;;;;;;;;23.57;57.02;100035.75;5093072;28;19912;-77
2023/09/07 06:52:39;;;;;;;;;;;;;;;23.68;56.97;100032.09;5089431;28;19916;-76
2023/09/07 06:55:05;;;;;;;;;;;;;;;23.75;54.82;100030.84;5084227;28;19923;-76
2023/09/07 06:57:30;;;;;;;;;;;;;;;23.83;55.63;100032.31;5075267;28;19916;-76
2023/09/07 06:59:55;;;;;;;;;;;;;;;23.88;55.67;100034.25;5093493;28;19912;-77
2023/09/07 07:02:21;;;;;;;;;;;;;;;23.90;54.63;100042.91;5092672;28;19923;-75
2023/09/07 07:04:46;;;;;;;;;;;;;;;23.90;54.85;100041.00;5092273;28;20289;-75
2023/09/07 07:07:11;;;;;;;;;;;;;;;23.93;54.39;100037.00;5072545;28;20006;-77
2023/09/07 07:09:36;;;;;;;;;;;;;;;24.01;54.96;100031.16;5101315;28;19927;-77
2023/09/07 07:12:02;;;;;;;;;;;;;;;24.07;54.08;100035.53;5112201;28;19920;-76
2023/09/07 07:14:27;;;;;;;;;;;;;;;24.09;53.82;100036.91;5094110;28;19923;-76
2023/09/07 07:16:52;;;;;;;;;;;;;;;24.14;53.53;100038.84;5092144;28;19920;-76
2023/09/07 07:19:18;;;;;;;;;;;;;;;24.24;54.81;100035.41;5091144;28;19932;-77
2023/09/07 07:21:43;;;;;;;;;;;;;;;24.22;52.87;100037.56;5091912;28;19916;-77
2023/09/07 07:24:08;;;;;;;;;;;;;;;24.21;52.97;100034.03;5090110;28;19928;-75
2023/09/07 07:26:34;;;;;;;;;;;;;;;24.23;53.24;100031.91;5091885;28;19920;-76
2023/09/07 07:28:59;;;;;;;;;;;;;;;24.26;53.75;100035.97;5092865;28;20358;-76
2023/09/07 07:31:24;;;;;;;;;;;;;;;24.19;51.98;100035.38;5094613;28;19958;-76
2023/09/07 07:33:50;;;;;;;;;;;;;;;24.22;52.54;100040.25;5112259;28;19930;-77
2023/09/07 07:36:15;;;;;;;;;;;;;;;24.29;51.32;100033.59;5097527;28;19945;-77
2023/09/07 07:38:40;;;;;;;;;;;;;;;24.40;52.00;100037.22;5092081;28;20661;-76
2023/09/07 07:41:05;;;;;;;;;;;;;;;24.53;51.50;100039.50;5091583;28;19969;-77
2023/09/07 07:43:32;;;;;;;;;;;;;;;24.62;51.57;100031.75;5073360;28;19924;-77
2023/09/07 07:45:57;;;;;;;;;;;;;;;24.71;50.03;100039.13;5091378;28;20025;-76
2023/09/07 07:48:23;;;;;;;;;;;;;;;24.75;49.13;100044.00;5090778;28;20060;-77
2023/09/07 07:50:48;;;;;;;;;;;;;;;24.83;50.00;100048.91;5090862;28;20406;-78
2023/09/07 07:53:14;;;;;;;;;;;;;;;24.92;50.59;100045.47;5090096;28;19916;-77
2023/09/07 07:55:40;;;;;;;;;;;;;;;25.02;49.88;100042.06;5092024;28;20382;-76
2023/09/07 07:58:09;;;;;;;;;;;;;;;24.99;49.86;100040.69;5091556;28;19916;-76
2023/09/07 08:00:35;;;;;;;;;;;;;;;25.02;49.15;100037.47;5073225;28;20446;-78
2023/09/07 08:03:02;;;;;;;;;;;;;;;25.09;48.38;100042.63;5088802;28;20276;-78
2023/09/07 08:05:28;;;;;;;;;;;;;;;25.12;48.29;100038.59;5091778;28;20507;-75
2023/09/07 08:07:53;;;;;;;;;;;;;;;25.12;49.15;100044.81;5091949;28;19938;-79
2023/09/07 08:10:18;;;;;;;;;;;;;;;25.15;49.30;100038.88;5090195;28;20293;-77
2023/09/07 08:12:44;;;;;;;;;;;;;;;25.18;47.78;100045.66;5091906;28;19958;-78
2023/09/07 08:15:09;;;;;;;;;;;;;;;25.20;47.98;100041.63;5090192;28;19920;-77
2023/09/07 08:17:34;;;;;;;;;;;;;;;25.29;47.66;100040.06;5091745;28;20304;-78
2023/09/07 08:20:00;;;;;;;;;;;;;;;25.46;49.37;100033.66;5089563;28;20344;-78
2023/09/07 08:22:27;;;;;;;;;;;;;;;25.54;47.17;100033.97;5088913;28;19951;-77
2023/09/07 08:24:53;;;;;;;;;;;;;;;25.64;48.46;100034.00;5090244;28;19927;-77
2023/09/07 08:27:19;;;;;;;;;;;;;;;25.74;49.03;100025.13;5089307;28;19912;-76
2023/09/07 08:29:48;;;;;;;;;;;;;;;25.79;45.44;100030.56;5089315;28;20011;-76
2023/09/07 08:32:14;;;;;;;;;;;;;;;25.91;46.55;100022.22;5087352;28;19920;-76
2023/09/07 08:34:41;;;;;;;;;;;;;;;26.08;46.93;100028.22;5088952;28;19953;-77
2023/09/07 08:37:08;;;;;;;;;;;;;;;26.27;44.76;100021.22;5088293;28;20026;-76
2023/09/07 08:39:34;;;;;;;;;;;;;;;26.44;46.54;100029.09;5073476;28;19912;-78
2023/09/07 08:42:00;;;;;;;;;;;;;;;26.55;43.02;100029.91;5089200;28;19973;-76
2023/09/07 08:44:26;;;;;;;;;;;;;;;26.66;44.03;100011.75;5090751;28;20006;-76
2023/09/07 08:46:52;;;;;;;;;;;;;;;26.78;45.48;100004.19;5091622;28;19995;-76
2023/09/07 08:49:20;;;;;;;;;;;;;;;26.97;45.23;100002.50;5063890;28;19916;-76
2023/09/07 08:51:46;;;;;;;;;;;;;;;27.11;44.92;99998.16;5076271;28;19916;-76
2023/09/07 08:54:12;;;;;;;;;;;;;;;27.20;41.39;100001.13;5091230;28;19916;-76
2023/09/07 08:56:37;;;;;;;;;;;;;;;27.23;43.72;100009.50;5090893;28;19973;-75
2023/09/07 08:59:04;;;;;;;;;;;;;;;27.17;42.70;99988.13;5090434;28;19951;-76
2023/09/07 09:01:31;;;;;;;;;;;;;;;27.26;43.74;99991.06;5088472;28;20015;-75
2023/09/07 09:03:56;;;;;;;;;;;;;;;27.37;42.10;99987.22;5087048;28;19920;-76
2023/09/07 09:06:22;;;;;;;;;;;;;;;27.31;43.94;99988.34;5086697;28;19973;-77
2023/09/07 09:08:54;;;;;;;;;;;;;;;27.24;42.52;99985.91;5091080;28;20345;-76
2023/09/07 09:11:20;;;;;;;;;;;;;;;27.40;40.98;99971.22;5087094;28;19916;-76
2023/09/07 09:13:46;;;;;;;;;;;;;;;27.63;43.95;99961.66;5071433;28;19916;-77
2023/09/07 09:16:13;;;;;;;;;;;;;;;27.89;40.90;99969.63;5084789;28;19916;-76
2023/09/07 09:18:39;;;;;;;;;;;;;;;27.90;43.67;99969.34;5095022;28;19959;-75
2023/09/07 09:21:05;;;;;;;;;;;;;;;27.87;43.35;99966.38;5094491;28;20000;-75
2023/09/07 09:23:32;;;;;;;;;;;;;;;28.00;41.55;99941.31;5094450;28;20419;-75
2023/09/07 09:25:57;;;;;;;;;;;;;;;28.14;42.68;99958.59;5093761;28;19923;-77
2023/09/07 09:28:22;;;;;;;;;;;;;;;28.43;42.01;99964.91;5093860;28;19912;-77
2023/09/07 09:30:48;;;;;;;;;;;;;;;28.74;40.95;99961.88;5087735;28;19923;-76
2023/09/07 09:33:14;;;;;;;;;;;;;;;28.95;40.29;99962.50;5076164;28;19924;-76
2023/09/07 09:35:39;;;;;;;;;;;;;;;28.82;38.60;99955.00;5071830;28;20320;-75
2023/09/07 09:38:05;;;;;;;;;;;;;;;28.69;41.02;99946.44;5093511;28;19921;-76
2023/09/07 09:40:31;;;;;;;;;;;;;;;28.64;38.35;99951.94;5094355;28;20293;-76
2023/09/07 09:42:57;;;;;;;;;;;;;;;28.82;37.38;99950.38;5092028;28;19924;-76
2023/09/07 09:45:23;;;;;;;;;;;;;;;28.95;39.77;99941.56;5093577;28;19920;-76
2023/09/07 09:47:50;;;;;;;;;;;;;;;28.95;39.22;99941.56;5075075;28;20471;-76
2023/09/07 09:50:16;;;;;;;;;;;;;;;28.87;37.53;99938.69;5073683;28;19916;-75
2023/09/07 09:52:42;;;;;;;;;;;;;;;29.10;38.28;99944.13;5076391;28;20297;-74
2023/09/07 09:55:08;;;;;;;;;;;;;;;29.12;39.29;99943.03;5092841;28;20006;-75
2023/09/07 09:57:36;;;;;;;;;;;;;;;29.40;38.07;99933.97;5093227;28;19966;-76
2023/09/07 10:02:49;;;;;;;;;;;;;;;29.89;37.68;99938.19;5094043;28;19981;-75
2023/09/07 10:05:16;;;;;;;;;;;;;;;29.95;37.02;99937.81;5093859;28;19935;-75
2023/09/07 10:07:45;;;;;;;;;;;;;;;29.83;35.98;99934.75;5075720;28;19916;-74
2023/09/07 10:10:12;;;;;;;;;;;;;;;29.61;37.76;99927.16;5091065;28;19932;-76
2023/09/07 10:12:45;;;;;;;;;;;;;;;29.25;37.91;99928.72;5108587;28;19931;-76
2023/09/07 10:15:22;;;;;;;;;;;;;;;29.09;38.33;99930.84;5100764;28;19916;-77
2023/09/07 10:17:50;;;;;;;;;;;;;;;28.90;37.40;99925.31;5094273;28;19969;-77
2023/09/07 10:20:15;;;;;;;;;;;;;;;28.99;36.98;99920.88;5094238;28;19927;-77
2023/09/07 10:22:40;;;;;;;;;;;;;;;29.36;35.93;99925.56;5094064;28;19912;-77
2023/09/07 10:25:11;;;;;;;;;;;;;;;29.81;35.95;99912.47;5093130;28;20023;-75
2023/09/07 10:27:38;;;;;;;;;;;;;;;30.15;36.89;99908.66;5093833;28;19919;-74
2023/09/07 10:30:09;;;;;;;;;;;;;;;30.42;35.14;99918.81;5093722;28;20344;-75
2023/09/07 10:32:38;;;;;;;;;;;;;;;30.82;35.06;99900.94;5075735;28;19916;-75
2023/09/07 10:35:11;;;;;;;;;;;;;;;31.12;34.46;99900.28;5085532;28;19913;-77
2023/09/07 10:37:37;;;;;;;;;;;;;;;31.44;34.80;99912.22;5102540;28;19998;-76
2023/09/07 10:40:04;;;;;;;;;;;;;;;31.32;33.92;99899.09;5089140;28;20360;-77
2023/09/07 10:42:30;;;;;;;;;;;;;;;31.48;35.52;99888.66;5072069;28;19918;-77
2023/09/07 10:44:55;;;;;;;;;;;;;;;31.75;35.02;99895.97;5089095;28;19920;-77
2023/09/07 10:47:20;;;;;;;;;;;;;;;31.99;31.26;99888.28;5074368;28;19923;-76
2023/09/07 10:49:46;;;;;;;;;;;;;;;32.04;32.25;99890.88;5091281;28;19920;-76
2023/09/07 10:52:11;;;;;;;;;;;;;;;31.63;32.27;99896.47;5084145;28;19973;-76
2023/09/07 10:54:36;;;;;;;;;;;;;;;31.31;34.83;99897.50;5071516;28;19920;-77
2023/09/07 10:57:13;;;;;;;;;;;;;;;30.87;33.39;99896.19;5091026;28;20353;-76
2023/09/07 10:59:38;;;;;;;;;;;;;;;30.78;33.33;99889.03;5071892;28;19912;-77
2023/09/07 11:02:06;;;;;;;;;;;;;;;30.83;33.09;99873.38;5057787;28;20000;-76
2023/09/07 11:04:32;;;;;;;;;;;;;;;30.94;33.15;99874.75;5092061;28;19920;-76
2023/09/07 11:06:57;;;;;;;;;;;;;;;30.79;35.17;99877.00;5093287;28;19916;-76
2023/09/07 11:09:23;;;;;;;;;;;;;;;30.64;33.53;99873.47;5092351;28;19920;-76
2023/09/07 11:11:48;;;;;;;;;;;;;;;31.03;33.09;99872.13;5075026;28;20007;-75
2023/09/07 11:14:13;;;;;;;;;;;;;;;31.32;33.04;99868.28;5093167;28;19912;-77
2023/09/07 11:16:40;;;;;;;;;;;;;;;31.67;32.26;99875.63;5092377;28;20403;-76
2023/09/07 11:19:06;;;;;;;;;;;;;;;31.95;33.03;99861.88;5089665;28;20075;-76
2023/09/07 11:21:34;;;;;;;;;;;;;;;31.95;32.54;99870.06;5070973;28;20038;-77
2023/09/07 11:24:00;;;;;;;;;;;;;;;31.50;31.57;99870.84;5091555;28;19928;-76
2023/09/07 11:26:25;;;;;;;;;;;;;;;31.14;32.37;99853.63;5092523;28;19916;-75
2023/09/07 11:28:50;;;;;;;;;;;;;;;31.35;31.94;99852.09;5090880;28;19922;-77
2023/09/07 11:31:18;;;;;;;;;;;;;;;31.58;32.46;99861.91;5091938;28;20384;-77
2023/09/07 11:33:43;;;;;;;;;;;;;;;31.42;31.34;99854.41;5092757;28;19904;-76
2023/09/07 11:36:08;;;;;;;;;;;;;;;31.06;32.82;99859.78;5086819;28;20030;-76
2023/09/07 11:38:37;;;;;;;;;;;;;;;30.94;33.55;99844.78;5091267;28;19912;-76
2023/09/07 11:41:03;;;;;;;;;;;;;;;31.28;33.16;99840.81;5088110;28;20316;-77
2023/09/07 11:43:28;;;;;;;;;;;;;;;31.48;31.70;99836.78;5087797;28;19987;-75
2023/09/07 11:45:54;;;;;;;;;;;;;;;31.42;32.63;99847.03;5091036;28;19924;-76
2023/09/07 11:48:19;;;;;;;;;;;;;;;31.39;33.07;99849.56;5092157;28;19912;-76
2023/09/07 11:50:45;;;;;;;;;;;;;;;31.17;32.60;99837.47;5092329;28;19916;-76
2023/09/07 11:53:10;;;;;;;;;;;;;;;30.83;32.15;99842.56;5090797;28;20401;-76
2023/09/07 11:55:35;;;;;;;;;;;;;;;30.56;34.15;99833.25;5089776;28;19923;-76
2023/09/07 11:58:01;;;;;;;;;;;;;;;30.36;34.45;99831.72;5073913;28;19912;-77
2023/09/07 12:00:26;;;;;;;;;;;;;;;30.17;32.98;99824.75;5091176;28;19920;-75
2023/09/07 12:02:52;;;;;;;;;;;;;;;29.99;33.96;99826.41;5091886;28;19920;-78
2023/09/07 12:05:19;;;;;;;;;;;;;;;29.85;33.99;99828.28;5089657;28;21625;-76
2023/09/07 12:07:45;;;;;;;;;;;;;;;29.76;34.94;99830.06;5091534;28;19923;-76
2023/09/07 12:10:10;;;;;;;;;;;;;;;29.63;34.00;99828.88;5088724;28;19962;-75
2023/09/07 12:12:42;;;;;;;;;;;;;;;29.51;33.80;99825.81;5085587;28;19916;-77
2023/09/07 12:15:08;;;;;;;;;;;;;;;29.39;34.29;99821.63;5089158;28;19923;-77
2023/09/07 12:17:34;;;;;;;;;;;;;;;29.33;35.88;99824.72;5067795;28;19917;-77
2023/09/07 12:20:00;;;;;;;;;;;;;;;29.25;35.23;99828.09;5085455;28;19924;-76
2023/09/07 12:22:25;;;;;;;;;;;;;;;29.23;34.95;99822.16;5090998;28;19916;-76
2023/09/07 12:24:50;;;;;;;;;;;;;;;29.22;35.14;99810.47;5088890;28;19926;-76
2023/09/07 12:27:16;;;;;;;;;;;;;;;29.32;34.59;99815.75;5091680;28;19960;-76
2023/09/07 12:29:41;;;;;;;;;;;;;;;29.50;34.28;99808.69;5091672;28;19912;-77
2023/09/07 12:32:07;;;;;;;;;;;;;;;29.75;35.11;99807.50;5090976;28;19916;-74
2023/09/07 12:34:32;;;;;;;;;;;;;;;29.91;33.79;99805.31;5073003;28;19916;-76
2023/09/07 12:36:57;;;;;;;;;;;;;;;30.14;33.98;99811.72;5089518;28;19908;-77
2023/09/07 12:39:22;;;;;;;;;;;;;;;30.22;32.16;99806.38;5091615;28;19948;-75
2023/09/07 12:41:48;;;;;;;;;;;;;;;30.23;34.03;99799.03;5083521;28;19913;-74